Skip to main content.
Our real time weather data display below is updated continuously via our 24/7 live data feed.
 TIME   TEMPERATURE   WINDSPEED   DIRECTION   HUMIDITY   BAROMETER   RAINFALL 
3:50 24.9°C (76.8°F) 0.0 kmh (0.0 mph) ENE 86% 1015.8hPa (30.00 inHg) 0.0mm (0.00 in.)
2:50 24.9°C (76.8 °F) 0.0 kmh (0.0 mph) ENE 85% 1016.4hPa (30.01 inHg) 0.0mm (0.00 in.)
1:50 25.0°C (77.0 °F) 0.0 kmh (0.0 mph) ENE 85% 1016.9hPa (30.03 inHg) 0.0mm (0.00 in.)
12:50 25.1°C (77.2 °F) 0.0 kmh (0.0 mph) ENE 84% 1017.3hPa (30.04 inHg) 0.0mm (0.00 in.)
11:50 25.3°C (77.5 °F) 0.0 kmh (0.0 mph) ENE 83% 1017.5hPa (30.05 inHg) 0.0mm (0.00 in.)
10:50 25.4°C (77.7 °F) 0.0 kmh (0.0 mph) ENE 82% 1017.9hPa (30.06 inHg) 0.0mm (0.00 in.)
9:50 25.6°C (78.1 °F) 0.0 kmh (0.0 mph) ENE 81% 1017.9hPa (30.06 inHg) 0.0mm (0.00 in.)
8:50 25.9°C (78.6 °F) 0.0 kmh (0.0 mph) ENE 80% 1017.9hPa (30.06 inHg) 0.0mm (0.00 in.)
7:50 26.2°C (79.2 °F) 0.0 kmh (0.0 mph) ENE 77% 1017.5hPa (30.05 inHg) 0.0mm (0.00 in.)
6:50 26.8°C (80.2 °F) 0.0 kmh (0.0 mph) ENE 74% 1017.5hPa (30.05 inHg) 0.0mm (0.00 in.)
5:50 28.7°C (83.7 °F) 0.0 kmh (0.0 mph) WSW 64% 1017.5hPa (30.05 inHg) 0.0mm (0.00 in.)
4:49 29.8°C (85.6 °F) 7.4 kmh (4.6 mph) N 63% 1017.4hPa (30.04 inHg) 0.0mm (0.00 in.)
3:48 29.8°C (85.6 °F) 0.0 kmh (0.0 mph) N 63% 1017.4hPa (30.04 inHg) 0.0mm (0.00 in.)
2:48 30.3°C (86.5 °F) 9.3 kmh (5.8 mph) N 58% 1017.8hPa (30.06 inHg) 0.0mm (0.00 in.)
1:48 30.3°C (86.5 °F) 3.7 kmh (2.3 mph) N 59% 1018.4hPa (30.07 inHg) 0.0mm (0.00 in.)
12:48 30.8°C (87.4 °F) 3.7 kmh (2.3 mph) N 58% 1018.9hPa (30.09 inHg) 0.0mm (0.00 in.)
11:48 29.6°C (85.3 °F) 9.3 kmh (5.8 mph) N 60% 1018.8hPa (30.09 inHg) 0.0mm (0.00 in.)
10:48 28.8°C (83.8 °F) 5.6 kmh (3.5 mph) N 63% 1018.6hPa (30.08 inHg) 0.0mm (0.00 in.)
9:48 28.6°C (83.5 °F) 0.0 kmh (0.0 mph) N 63% 1018.2hPa (30.07 inHg) 0.0mm (0.00 in.)
8:48 27.3°C (81.1 °F) 0.0 kmh (0.0 mph) N 71% 1017.7hPa (30.05 inHg) 0.0mm (0.00 in.)
7:48 25.9°C (78.6 °F) 0.0 kmh (0.0 mph) N 79% 1017.2hPa (30.04 inHg) 0.0mm (0.00 in.)
6:48 23.9°C (75.0 °F) 0.0 kmh (0.0 mph) N 86% 1016.9hPa (30.03 inHg) 0.0mm (0.00 in.)
5:48 24.1°C (75.4 °F) 0.0 kmh (0.0 mph) N 84% 1016.8hPa (30.03 inHg) 0.0mm (0.00 in.)
4:48 24.4°C (75.9 °F) 0.0 kmh (0.0 mph) N 79% 1016.6hPa (30.02 inHg) 0.0mm (0.00 in.)